sensor_id;sensor_type;location;lat;lon;timestamp;P1;durP1;ratioP1;P2;durP2;ratioP2
35290;SDS011;21411;50.024;19.220;2023-08-01T09:01:14;5.80;;;3.00;;
35290;SDS011;21411;50.024;19.220;2023-08-01T09:03:43;7.20;;;3.90;;
35290;SDS011;21411;50.024;19.220;2023-08-01T09:08:48;3.50;;;3.10;;
35290;SDS011;21411;50.024;19.220;2023-08-01T09:11:18;3.40;;;2.90;;
35290;SDS011;21411;50.024;19.220;2023-08-01T09:13:44;5.90;;;3.40;;
35290;SDS011;21411;50.024;19.220;2023-08-01T09:16:11;5.10;;;3.40;;
35290;SDS011;21411;50.024;19.220;2023-08-01T09:18:50;4.90;;;3.40;;
35290;SDS011;21411;50.024;19.220;2023-08-01T09:21:21;4.40;;;3.10;;
35290;SDS011;21411;50.024;19.220;2023-08-01T09:23:48;3.80;;;3.10;;
35290;SDS011;21411;50.024;19.220;2023-08-01T09:26:15;5.10;;;3.10;;
35290;SDS011;21411;50.024;19.220;2023-08-01T09:28:42;4.90;;;3.40;;
35290;SDS011;21411;50.024;19.220;2023-08-01T09:31:10;5.40;;;3.10;;
35290;SDS011;21411;50.024;19.220;2023-08-01T09:33:40;7.00;;;3.30;;
35290;SDS011;21411;50.024;19.220;2023-08-01T09:36:08;3.90;;;2.80;;
35290;SDS011;21411;50.024;19.220;2023-08-01T09:38:36;8.80;;;3.10;;
35290;SDS011;21411;50.024;19.220;2023-08-01T09:41:04;5.50;;;3.40;;
35290;SDS011;21411;50.024;19.220;2023-08-01T09:43:34;4.30;;;2.70;;
35290;SDS011;21411;50.024;19.220;2023-08-01T09:46:02;8.10;;;2.90;;
35290;SDS011;21411;50.024;19.220;2023-08-01T09:48:30;3.40;;;2.70;;
35290;SDS011;21411;50.024;19.220;2023-08-01T09:51:07;4.10;;;3.00;;
35290;SDS011;21411;50.024;19.220;2023-08-01T09:53:45;5.10;;;3.00;;
35290;SDS011;21411;50.024;19.220;2023-08-01T09:56:18;6.20;;;3.20;;
35290;SDS011;21411;50.024;19.220;2023-08-01T09:58:47;10.30;;;4.20;;
35290;SDS011;21411;50.024;19.220;2023-08-01T10:01:16;7.00;;;3.30;;
35290;SDS011;21411;50.024;19.220;2023-08-01T10:03:46;4.00;;;3.00;;
35290;SDS011;21411;50.024;19.220;2023-08-01T10:06:17;8.40;;;3.80;;
35290;SDS011;21411;50.024;19.220;2023-08-01T10:08:46;3.40;;;2.70;;
35290;SDS011;21411;50.024;19.220;2023-08-01T10:11:14;4.80;;;3.00;;
35290;SDS011;21411;50.024;19.220;2023-08-01T10:13:43;4.90;;;3.50;;
35290;SDS011;21411;50.024;19.220;2023-08-01T10:16:13;3.90;;;2.70;;
35290;SDS011;21411;50.024;19.220;2023-08-01T10:18:41;4.80;;;2.70;;
35290;SDS011;21411;50.024;19.220;2023-08-01T10:21:13;4.50;;;2.90;;
35290;SDS011;21411;50.024;19.220;2023-08-01T10:23:42;3.90;;;3.10;;
35290;SDS011;21411;50.024;19.220;2023-08-01T10:26:11;4.20;;;2.90;;
35290;SDS011;21411;50.024;19.220;2023-08-01T10:28:41;4.10;;;3.30;;
35290;SDS011;21411;50.024;19.220;2023-08-01T10:31:16;4.50;;;2.90;;
35290;SDS011;21411;50.024;19.220;2023-08-01T10:33:48;4.70;;;2.90;;
35290;SDS011;21411;50.024;19.220;2023-08-01T10:36:19;3.80;;;2.90;;
35290;SDS011;21411;50.024;19.220;2023-08-01T10:41:26;3.80;;;2.70;;
35290;SDS011;21411;50.024;19.220;2023-08-01T10:44:11;5.20;;;3.30;;
35290;SDS011;21411;50.024;19.220;2023-08-01T10:46:47;4.80;;;3.20;;
35290;SDS011;21411;50.024;19.220;2023-08-01T10:49:16;3.40;;;3.10;;
35290;SDS011;21411;50.024;19.220;2023-08-01T10:51:44;5.10;;;3.10;;
35290;SDS011;21411;50.024;19.220;2023-08-01T10:54:32;3.30;;;3.00;;
35290;SDS011;21411;50.024;19.220;2023-08-01T10:57:00;4.20;;;2.60;;
35290;SDS011;21411;50.024;19.220;2023-08-01T10:59:28;4.50;;;2.90;;
35290;SDS011;21411;50.024;19.220;2023-08-01T11:01:57;3.50;;;3.20;;
35290;SDS011;21411;50.024;19.220;2023-08-01T11:06:52;2.90;;;2.70;;
35290;SDS011;21411;50.024;19.220;2023-08-01T11:09:25;3.40;;;2.90;;
35290;SDS011;21411;50.024;19.220;2023-08-01T11:11:54;3.20;;;2.70;;
35290;SDS011;21411;50.024;19.220;2023-08-01T11:14:26;2.90;;;2.60;;
35290;SDS011;21411;50.024;19.220;2023-08-01T11:16:54;3.70;;;3.20;;
35290;SDS011;21411;50.024;19.220;2023-08-01T11:19:26;5.00;;;3.30;;
35290;SDS011;21411;50.024;19.220;2023-08-01T11:21:54;3.40;;;2.90;;
35290;SDS011;21411;50.024;19.220;2023-08-01T11:24:25;3.80;;;3.10;;
35290;SDS011;21411;50.024;19.220;2023-08-01T11:26:53;4.30;;;3.20;;
35290;SDS011;21411;50.024;19.220;2023-08-01T11:29:20;4.20;;;3.50;;
35290;SDS011;21411;50.024;19.220;2023-08-01T11:34:20;4.30;;;3.40;;
35290;SDS011;21411;50.024;19.220;2023-08-01T11:36:47;3.50;;;3.20;;
35290;SDS011;21411;50.024;19.220;2023-08-01T11:39:15;4.50;;;3.40;;
35290;SDS011;21411;50.024;19.220;2023-08-01T11:41:43;4.30;;;3.70;;
35290;SDS011;21411;50.024;19.220;2023-08-01T11:44:10;4.20;;;3.00;;
35290;SDS011;21411;50.024;19.220;2023-08-01T11:46:38;3.40;;;3.10;;
35290;SDS011;21411;50.024;19.220;2023-08-01T11:49:05;4.30;;;3.80;;
35290;SDS011;21411;50.024;19.220;2023-08-01T11:51:40;4.00;;;3.30;;
35290;SDS011;21411;50.024;19.220;2023-08-01T11:54:07;4.60;;;3.20;;
35290;SDS011;21411;50.024;19.220;2023-08-01T11:56:37;3.80;;;3.30;;
35290;SDS011;21411;50.024;19.220;2023-08-01T11:59:10;3.90;;;3.60;;
35290;SDS011;21411;50.024;19.220;2023-08-01T12:01:46;4.20;;;3.20;;
35290;SDS011;21411;50.024;19.220;2023-08-01T12:04:26;4.70;;;3.30;;
35290;SDS011;21411;50.024;19.220;2023-08-01T12:06:53;3.80;;;3.50;;
35290;SDS011;21411;50.024;19.220;2023-08-01T12:09:20;5.00;;;3.20;;
35290;SDS011;21411;50.024;19.220;2023-08-01T12:11:47;5.10;;;3.70;;
35290;SDS011;21411;50.024;19.220;2023-08-01T12:14:25;3.90;;;3.40;;
35290;SDS011;21411;50.024;19.220;2023-08-01T12:16:51;4.10;;;3.40;;
35290;SDS011;21411;50.024;19.220;2023-08-01T12:19:18;3.80;;;3.40;;
35290;SDS011;21411;50.024;19.220;2023-08-01T12:21:46;4.90;;;3.40;;
35290;SDS011;21411;50.024;19.220;2023-08-01T12:24:13;3.40;;;3.10;;
35290;SDS011;21411;50.024;19.220;2023-08-01T12:26:40;3.40;;;2.80;;
35290;SDS011;21411;50.024;19.220;2023-08-01T12:29:07;4.00;;;3.70;;
35290;SDS011;21411;50.024;19.220;2023-08-01T12:31:34;3.10;;;2.80;;
35290;SDS011;21411;50.024;19.220;2023-08-01T12:34:01;3.90;;;2.90;;
35290;SDS011;21411;50.024;19.220;2023-08-01T12:36:27;3.50;;;3.20;;
35290;SDS011;21411;50.024;19.220;2023-08-01T12:38:54;3.90;;;3.10;;
35290;SDS011;21411;50.024;19.220;2023-08-01T12:41:21;3.50;;;3.20;;
35290;SDS011;21411;50.024;19.220;2023-08-01T12:43:48;4.30;;;3.00;;
35290;SDS011;21411;50.024;19.220;2023-08-01T12:46:14;4.00;;;3.40;;
35290;SDS011;21411;50.024;19.220;2023-08-01T12:48:41;3.80;;;3.00;;
35290;SDS011;21411;50.024;19.220;2023-08-01T12:51:07;4.30;;;3.50;;
35290;SDS011;21411;50.024;19.220;2023-08-01T12:53:34;6.90;;;4.50;;
35290;SDS011;21411;50.024;19.220;2023-08-01T12:56:01;5.20;;;4.10;;
35290;SDS011;21411;50.024;19.220;2023-08-01T12:58:27;5.90;;;4.30;;
35290;SDS011;21411;50.024;19.220;2023-08-01T13:00:55;5.10;;;4.60;;
35290;SDS011;21411;50.024;19.220;2023-08-01T13:03:22;5.00;;;4.20;;
35290;SDS011;21411;50.024;19.220;2023-08-01T13:05:48;4.40;;;4.00;;
35290;SDS011;21411;50.024;19.220;2023-08-01T13:08:15;3.40;;;3.10;;
35290;SDS011;21411;50.024;19.220;2023-08-01T13:10:41;3.60;;;3.20;;
35290;SDS011;21411;50.024;19.220;2023-08-01T13:13:08;2.90;;;2.70;;
35290;SDS011;21411;50.024;19.220;2023-08-01T13:15:35;4.60;;;2.80;;
35290;SDS011;21411;50.024;19.220;2023-08-01T13:18:01;2.80;;;2.60;;
35290;SDS011;21411;50.024;19.220;2023-08-01T13:20:28;3.20;;;2.80;;
35290;SDS011;21411;50.024;19.220;2023-08-01T13:22:55;3.30;;;3.00;;
35290;SDS011;21411;50.024;19.220;2023-08-01T13:25:22;2.90;;;2.60;;
35290;SDS011;21411;50.024;19.220;2023-08-01T13:27:48;4.20;;;2.90;;
35290;SDS011;21411;50.024;19.220;2023-08-01T13:30:15;4.70;;;2.70;;
35290;SDS011;21411;50.024;19.220;2023-08-01T13:32:44;2.60;;;2.40;;
35290;SDS011;21411;50.024;19.220;2023-08-01T13:35:12;3.60;;;2.40;;
35290;SDS011;21411;50.024;19.220;2023-08-01T13:37:39;2.70;;;2.30;;
35290;SDS011;21411;50.024;19.220;2023-08-01T13:40:06;2.60;;;2.40;;
35290;SDS011;21411;50.024;19.220;2023-08-01T13:42:33;4.70;;;2.70;;
35290;SDS011;21411;50.024;19.220;2023-08-01T13:45:01;2.80;;;2.40;;
35290;SDS011;21411;50.024;19.220;2023-08-01T13:47:27;2.60;;;2.40;;
35290;SDS011;21411;50.024;19.220;2023-08-01T13:49:54;2.50;;;2.30;;
35290;SDS011;21411;50.024;19.220;2023-08-01T13:52:21;2.40;;;2.20;;
35290;SDS011;21411;50.024;19.220;2023-08-01T13:54:47;2.60;;;2.40;;
35290;SDS011;21411;50.024;19.220;2023-08-01T13:57:14;2.70;;;2.50;;
35290;SDS011;21411;50.024;19.220;2023-08-01T13:59:40;2.70;;;2.50;;
35290;SDS011;21411;50.024;19.220;2023-08-01T14:02:07;3.30;;;2.30;;
35290;SDS011;21411;50.024;19.220;2023-08-01T14:04:34;3.10;;;2.40;;
35290;SDS011;21411;50.024;19.220;2023-08-01T14:07:00;2.90;;;2.30;;
35290;SDS011;21411;50.024;19.220;2023-08-01T14:09:29;4.20;;;2.50;;
35290;SDS011;21411;50.024;19.220;2023-08-01T14:11:58;3.30;;;2.40;;
35290;SDS011;21411;50.024;19.220;2023-08-01T14:14:25;2.60;;;2.20;;
35290;SDS011;21411;50.024;19.220;2023-08-01T14:16:51;3.30;;;2.10;;
35290;SDS011;21411;50.024;19.220;2023-08-01T14:19:18;2.60;;;2.20;;
35290;SDS011;21411;50.024;19.220;2023-08-01T14:21:45;2.40;;;2.20;;
35290;SDS011;21411;50.024;19.220;2023-08-01T14:24:11;2.50;;;2.30;;
35290;SDS011;21411;50.024;19.220;2023-08-01T14:26:38;3.90;;;2.40;;
35290;SDS011;21411;50.024;19.220;2023-08-01T14:29:05;2.40;;;2.20;;
35290;SDS011;21411;50.024;19.220;2023-08-01T14:31:32;2.50;;;2.30;;
35290;SDS011;21411;50.024;19.220;2023-08-01T14:33:58;2.10;;;1.90;;
35290;SDS011;21411;50.024;19.220;2023-08-01T14:36:25;3.70;;;2.20;;
35290;SDS011;21411;50.024;19.220;2023-08-01T14:38:51;2.20;;;1.90;;
35290;SDS011;21411;50.024;19.220;2023-08-01T14:41:21;3.00;;;1.90;;
35290;SDS011;21411;50.024;19.220;2023-08-01T14:43:47;2.90;;;2.10;;
35290;SDS011;21411;50.024;19.220;2023-08-01T14:46:14;2.30;;;2.00;;
35290;SDS011;21411;50.024;19.220;2023-08-01T14:48:40;2.80;;;2.40;;
35290;SDS011;21411;50.024;19.220;2023-08-01T14:51:07;2.40;;;2.10;;
35290;SDS011;21411;50.024;19.220;2023-08-01T14:53:33;2.40;;;2.20;;
35290;SDS011;21411;50.024;19.220;2023-08-01T14:56:00;2.70;;;2.50;;
35290;SDS011;21411;50.024;19.220;2023-08-01T14:58:29;2.50;;;2.20;;
35290;SDS011;21411;50.024;19.220;2023-08-01T15:00:56;2.80;;;2.60;;
35290;SDS011;21411;50.024;19.220;2023-08-01T15:03:23;4.00;;;2.20;;
35290;SDS011;21411;50.024;19.220;2023-08-01T15:05:50;2.60;;;2.40;;
35290;SDS011;21411;50.024;19.220;2023-08-01T15:08:16;4.40;;;2.50;;
35290;SDS011;21411;50.024;19.220;2023-08-01T15:10:43;3.70;;;2.50;;
35290;SDS011;21411;50.024;19.220;2023-08-01T15:13:09;4.10;;;2.40;;
35290;SDS011;21411;50.024;19.220;2023-08-01T15:15:36;3.00;;;2.70;;
35290;SDS011;21411;50.024;19.220;2023-08-01T15:18:03;2.30;;;2.10;;
35290;SDS011;21411;50.024;19.220;2023-08-01T15:20:31;3.40;;;2.10;;
35290;SDS011;21411;50.024;19.220;2023-08-01T15:23:01;2.50;;;2.30;;
35290;SDS011;21411;50.024;19.220;2023-08-01T15:25:28;2.20;;;2.00;;
35290;SDS011;21411;50.024;19.220;2023-08-01T15:27:55;2.40;;;2.20;;
35290;SDS011;21411;50.024;19.220;2023-08-01T15:30:22;2.50;;;2.10;;
35290;SDS011;21411;50.024;19.220;2023-08-01T15:32:48;2.60;;;2.10;;
35290;SDS011;21411;50.024;19.220;2023-08-01T15:35:15;3.30;;;2.30;;
35290;SDS011;21411;50.024;19.220;2023-08-01T15:37:41;1.70;;;1.60;;
35290;SDS011;21411;50.024;19.220;2023-08-01T15:40:08;2.20;;;1.90;;
35290;SDS011;21411;50.024;19.220;2023-08-01T15:42:35;2.20;;;2.00;;
35290;SDS011;21411;50.024;19.220;2023-08-01T15:45:02;2.70;;;1.80;;
35290;SDS011;21411;50.024;19.220;2023-08-01T15:47:28;3.20;;;2.00;;
35290;SDS011;21411;50.024;19.220;2023-08-01T15:49:55;3.40;;;2.10;;
35290;SDS011;21411;50.024;19.220;2023-08-01T15:52:22;2.10;;;1.90;;
35290;SDS011;21411;50.024;19.220;2023-08-01T15:54:48;2.10;;;1.80;;
35290;SDS011;21411;50.024;19.220;2023-08-01T15:57:15;2.10;;;1.90;;
35290;SDS011;21411;50.024;19.220;2023-08-01T15:59:42;2.00;;;1.80;;
35290;SDS011;21411;50.024;19.220;2023-08-01T16:02:08;2.50;;;2.00;;
35290;SDS011;21411;50.024;19.220;2023-08-01T16:04:36;2.30;;;2.10;;
35290;SDS011;21411;50.024;19.220;2023-08-01T16:07:02;2.80;;;2.10;;
35290;SDS011;21411;50.024;19.220;2023-08-01T16:09:29;2.40;;;1.80;;
35290;SDS011;21411;50.024;19.220;2023-08-01T16:11:56;3.00;;;2.10;;
35290;SDS011;21411;50.024;19.220;2023-08-01T16:14:22;2.20;;;1.60;;
35290;SDS011;21411;50.024;19.220;2023-08-01T16:16:49;2.50;;;2.30;;
35290;SDS011;21411;50.024;19.220;2023-08-01T16:19:15;3.70;;;2.20;;
35290;SDS011;21411;50.024;19.220;2023-08-01T16:21:42;3.20;;;2.50;;
35290;SDS011;21411;50.024;19.220;2023-08-01T16:24:09;2.60;;;2.40;;
35290;SDS011;21411;50.024;19.220;2023-08-01T16:26:35;2.10;;;1.90;;
35290;SDS011;21411;50.024;19.220;2023-08-01T16:29:02;4.10;;;2.50;;
35290;SDS011;21411;50.024;19.220;2023-08-01T16:31:29;3.00;;;2.40;;
35290;SDS011;21411;50.024;19.220;2023-08-01T16:33:56;3.20;;;2.80;;
35290;SDS011;21411;50.024;19.220;2023-08-01T16:36:22;2.80;;;2.50;;
35290;SDS011;21411;50.024;19.220;2023-08-01T16:38:49;2.80;;;2.50;;
35290;SDS011;21411;50.024;19.220;2023-08-01T16:41:15;3.70;;;2.40;;
35290;SDS011;21411;50.024;19.220;2023-08-01T16:43:48;3.50;;;2.50;;
35290;SDS011;21411;50.024;19.220;2023-08-01T16:46:15;4.30;;;3.50;;
35290;SDS011;21411;50.024;19.220;2023-08-01T16:48:42;3.60;;;3.30;;
35290;SDS011;21411;50.024;19.220;2023-08-01T16:51:08;3.40;;;2.80;;
35290;SDS011;21411;50.024;19.220;2023-08-01T16:53:36;3.70;;;3.20;;
35290;SDS011;21411;50.024;19.220;2023-08-01T16:56:03;5.50;;;3.70;;
35290;SDS011;21411;50.024;19.220;2023-08-01T16:58:30;4.30;;;3.70;;
35290;SDS011;21411;50.024;19.220;2023-08-01T17:00:56;4.20;;;3.80;;
35290;SDS011;21411;50.024;19.220;2023-08-01T17:03:23;5.20;;;4.20;;
35290;SDS011;21411;50.024;19.220;2023-08-01T17:05:50;4.40;;;3.80;;
35290;SDS011;21411;50.024;19.220;2023-08-01T17:08:17;4.50;;;4.00;;
35290;SDS011;21411;50.024;19.220;2023-08-01T17:10:44;5.00;;;4.50;;
35290;SDS011;21411;50.024;19.220;2023-08-01T17:13:10;4.70;;;3.90;;
35290;SDS011;21411;50.024;19.220;2023-08-01T17:15:37;6.00;;;4.30;;
35290;SDS011;21411;50.024;19.220;2023-08-01T17:18:03;4.80;;;3.60;;
35290;SDS011;21411;50.024;19.220;2023-08-01T17:20:30;4.40;;;3.90;;
35290;SDS011;21411;50.024;19.220;2023-08-01T17:23:02;4.60;;;3.50;;
35290;SDS011;21411;50.024;19.220;2023-08-01T17:25:29;3.60;;;3.30;;
35290;SDS011;21411;50.024;19.220;2023-08-01T17:27:55;4.80;;;3.30;;
35290;SDS011;21411;50.024;19.220;2023-08-01T17:30:23;5.40;;;3.70;;
35290;SDS011;21411;50.024;19.220;2023-08-01T17:32:49;5.10;;;3.70;;
35290;SDS011;21411;50.024;19.220;2023-08-01T17:35:16;4.70;;;3.50;;
35290;SDS011;21411;50.024;19.220;2023-08-01T17:37:43;3.60;;;3.10;;
35290;SDS011;21411;50.024;19.220;2023-08-01T17:40:10;5.70;;;3.30;;
35290;SDS011;21411;50.024;19.220;2023-08-01T17:42:37;3.30;;;2.90;;
35290;SDS011;21411;50.024;19.220;2023-08-01T17:45:04;3.60;;;2.90;;
35290;SDS011;21411;50.024;19.220;2023-08-01T17:47:32;3.00;;;2.70;;
35290;SDS011;21411;50.024;19.220;2023-08-01T17:49:58;3.70;;;2.60;;
35290;SDS011;21411;50.024;19.220;2023-08-01T17:52:25;4.40;;;2.90;;
35290;SDS011;21411;50.024;19.220;2023-08-01T17:54:51;4.10;;;2.80;;
35290;SDS011;21411;50.024;19.220;2023-08-01T17:57:18;3.20;;;2.90;;
35290;SDS011;21411;50.024;19.220;2023-08-01T17:59:45;5.00;;;2.50;;
35290;SDS011;21411;50.024;19.220;2023-08-01T18:02:12;3.30;;;2.70;;
35290;SDS011;21411;50.024;19.220;2023-08-01T18:04:41;4.50;;;3.40;;
35290;SDS011;21411;50.024;19.220;2023-08-01T18:07:10;4.10;;;3.70;;
35290;SDS011;21411;50.024;19.220;2023-08-01T18:09:36;5.50;;;3.40;;
35290;SDS011;21411;50.024;19.220;2023-08-01T18:12:03;4.60;;;3.90;;
35290;SDS011;21411;50.024;19.220;2023-08-01T18:14:34;4.80;;;3.20;;
35290;SDS011;21411;50.024;19.220;2023-08-01T18:17:01;8.40;;;3.70;;
35290;SDS011;21411;50.024;19.220;2023-08-01T18:19:28;4.00;;;3.70;;
35290;SDS011;21411;50.024;19.220;2023-08-01T18:21:55;4.20;;;3.70;;
35290;SDS011;21411;50.024;19.220;2023-08-01T18:24:21;4.10;;;3.60;;
35290;SDS011;21411;50.024;19.220;2023-08-01T18:26:48;4.40;;;3.30;;
35290;SDS011;21411;50.024;19.220;2023-08-01T18:29:14;4.00;;;3.30;;
35290;SDS011;21411;50.024;19.220;2023-08-01T18:31:41;5.70;;;3.80;;
35290;SDS011;21411;50.024;19.220;2023-08-01T18:34:08;4.80;;;3.20;;
35290;SDS011;21411;50.024;19.220;2023-08-01T18:36:34;4.10;;;3.70;;
35290;SDS011;21411;50.024;19.220;2023-08-01T18:39:01;4.80;;;4.30;;
35290;SDS011;21411;50.024;19.220;2023-08-01T18:41:28;4.90;;;4.50;;
35290;SDS011;21411;50.024;19.220;2023-08-01T18:43:55;4.60;;;3.80;;
35290;SDS011;21411;50.024;19.220;2023-08-01T18:46:22;4.90;;;3.80;;
35290;SDS011;21411;50.024;19.220;2023-08-01T18:48:49;4.80;;;3.90;;
35290;SDS011;21411;50.024;19.220;2023-08-01T18:51:17;4.60;;;4.20;;
35290;SDS011;21411;50.024;19.220;2023-08-01T18:53:45;4.50;;;4.10;;
35290;SDS011;21411;50.024;19.220;2023-08-01T18:56:12;5.30;;;3.80;;
35290;SDS011;21411;50.024;19.220;2023-08-01T18:58:45;7.00;;;4.00;;
35290;SDS011;21411;50.024;19.220;2023-08-01T19:01:13;3.90;;;3.60;;
35290;SDS011;21411;50.024;19.220;2023-08-01T19:03:41;5.20;;;4.70;;
35290;SDS011;21411;50.024;19.220;2023-08-01T19:06:09;4.90;;;4.40;;
35290;SDS011;21411;50.024;19.220;2023-08-01T19:08:36;5.50;;;4.50;;
35290;SDS011;21411;50.024;19.220;2023-08-01T19:11:03;5.10;;;4.10;;
35290;SDS011;21411;50.024;19.220;2023-08-01T19:13:30;4.90;;;4.20;;
35290;SDS011;21411;50.024;19.220;2023-08-01T19:15:57;4.90;;;4.40;;
35290;SDS011;21411;50.024;19.220;2023-08-01T19:18:26;4.60;;;4.10;;
35290;SDS011;21411;50.024;19.220;2023-08-01T19:20:54;6.50;;;5.90;;
35290;SDS011;21411;50.024;19.220;2023-08-01T19:23:20;6.40;;;5.90;;
35290;SDS011;21411;50.024;19.220;2023-08-01T19:25:47;7.50;;;6.80;;
35290;SDS011;21411;50.024;19.220;2023-08-01T19:28:14;7.50;;;6.80;;
35290;SDS011;21411;50.024;19.220;2023-08-01T19:30:40;7.20;;;6.60;;
35290;SDS011;21411;50.024;19.220;2023-08-01T19:33:07;6.20;;;5.70;;
35290;SDS011;21411;50.024;19.220;2023-08-01T19:35:40;5.90;;;5.30;;
35290;SDS011;21411;50.024;19.220;2023-08-01T19:38:08;7.40;;;6.40;;
35290;SDS011;21411;50.024;19.220;2023-08-01T19:40:38;6.30;;;5.70;;
35290;SDS011;21411;50.024;19.220;2023-08-01T19:43:08;6.50;;;5.80;;
35290;SDS011;21411;50.024;19.220;2023-08-01T19:45:35;6.20;;;5.50;;
35290;SDS011;21411;50.024;19.220;2023-08-01T19:48:02;6.90;;;5.20;;
35290;SDS011;21411;50.024;19.220;2023-08-01T19:50:29;6.60;;;6.00;;
35290;SDS011;21411;50.024;19.220;2023-08-01T19:52:56;6.90;;;5.70;;
35290;SDS011;21411;50.024;19.220;2023-08-01T19:55:23;5.80;;;5.30;;
35290;SDS011;21411;50.024;19.220;2023-08-01T19:57:50;5.60;;;5.10;;
35290;SDS011;21411;50.024;19.220;2023-08-01T20:00:17;7.60;;;5.90;;
35290;SDS011;21411;50.024;19.220;2023-08-01T20:02:46;6.50;;;5.80;;
35290;SDS011;21411;50.024;19.220;2023-08-01T20:05:13;8.80;;;7.90;;
35290;SDS011;21411;50.024;19.220;2023-08-01T20:07:39;13.30;;;12.10;;
35290;SDS011;21411;50.024;19.220;2023-08-01T20:10:06;11.40;;;10.30;;
35290;SDS011;21411;50.024;19.220;2023-08-01T20:12:34;10.70;;;8.70;;
35290;SDS011;21411;50.024;19.220;2023-08-01T20:15:01;10.40;;;9.30;;
35290;SDS011;21411;50.024;19.220;2023-08-01T20:17:28;10.80;;;9.40;;
35290;SDS011;21411;50.024;19.220;2023-08-01T20:19:54;8.10;;;7.40;;
35290;SDS011;21411;50.024;19.220;2023-08-01T20:22:21;9.90;;;9.00;;
35290;SDS011;21411;50.024;19.220;2023-08-01T20:24:48;9.50;;;7.50;;
35290;SDS011;21411;50.024;19.220;2023-08-01T20:27:14;7.70;;;7.00;;
35290;SDS011;21411;50.024;19.220;2023-08-01T20:29:41;9.50;;;7.00;;
35290;SDS011;21411;50.024;19.220;2023-08-01T20:32:08;7.40;;;6.80;;
35290;SDS011;21411;50.024;19.220;2023-08-01T20:34:34;7.60;;;7.00;;
35290;SDS011;21411;50.024;19.220;2023-08-01T20:37:02;7.70;;;6.30;;
35290;SDS011;21411;50.024;19.220;2023-08-01T20:39:29;7.70;;;6.90;;
35290;SDS011;21411;50.024;19.220;2023-08-01T20:41:56;8.60;;;7.90;;
35290;SDS011;21411;50.024;19.220;2023-08-01T20:44:23;10.00;;;7.60;;
35290;SDS011;21411;50.024;19.220;2023-08-01T20:46:50;8.10;;;7.30;;
35290;SDS011;21411;50.024;19.220;2023-08-01T20:49:16;7.40;;;6.80;;
35290;SDS011;21411;50.024;19.220;2023-08-01T20:51:43;7.80;;;6.90;;
35290;SDS011;21411;50.024;19.220;2023-08-01T20:54:10;7.70;;;6.90;;
35290;SDS011;21411;50.024;19.220;2023-08-01T20:56:36;9.40;;;7.40;;
35290;SDS011;21411;50.024;19.220;2023-08-01T20:59:03;8.30;;;7.20;;
35290;SDS011;21411;50.024;19.220;2023-08-01T21:01:31;8.30;;;7.30;;
35290;SDS011;21411;50.024;19.220;2023-08-01T21:03:58;9.40;;;8.40;;
35290;SDS011;21411;50.024;19.220;2023-08-01T21:06:25;8.10;;;7.40;;
35290;SDS011;21411;50.024;19.220;2023-08-01T21:08:52;9.40;;;8.50;;
35290;SDS011;21411;50.024;19.220;2023-08-01T21:11:18;10.40;;;9.40;;
35290;SDS011;21411;50.024;19.220;2023-08-01T21:13:45;9.20;;;8.40;;
35290;SDS011;21411;50.024;19.220;2023-08-01T21:16:14;9.50;;;8.60;;
35290;SDS011;21411;50.024;19.220;2023-08-01T21:18:42;9.60;;;8.60;;
35290;SDS011;21411;50.024;19.220;2023-08-01T21:21:10;10.10;;;9.20;;
35290;SDS011;21411;50.024;19.220;2023-08-01T21:23:38;10.30;;;9.10;;
35290;SDS011;21411;50.024;19.220;2023-08-01T21:26:09;11.30;;;10.20;;
35290;SDS011;21411;50.024;19.220;2023-08-01T21:28:36;11.40;;;10.30;;
35290;SDS011;21411;50.024;19.220;2023-08-01T21:31:02;11.40;;;10.30;;
35290;SDS011;21411;50.024;19.220;2023-08-01T21:33:29;11.20;;;10.00;;
35290;SDS011;21411;50.024;19.220;2023-08-01T21:35:56;10.30;;;9.40;;
35290;SDS011;21411;50.024;19.220;2023-08-01T21:38:23;9.30;;;8.30;;
35290;SDS011;21411;50.024;19.220;2023-08-01T21:40:50;12.10;;;9.10;;
35290;SDS011;21411;50.024;19.220;2023-08-01T21:43:20;15.70;;;13.70;;
35290;SDS011;21411;50.024;19.220;2023-08-01T21:45:55;13.70;;;12.30;;
35290;SDS011;21411;50.024;19.220;2023-08-01T21:48:23;15.10;;;12.30;;
35290;SDS011;21411;50.024;19.220;2023-08-01T21:50:50;13.10;;;11.40;;
35290;SDS011;21411;50.024;19.220;2023-08-01T21:53:17;10.40;;;8.90;;
35290;SDS011;21411;50.024;19.220;2023-08-01T21:55:44;11.50;;;7.90;;
35290;SDS011;21411;50.024;19.220;2023-08-01T21:58:13;8.90;;;7.80;;
35290;SDS011;21411;50.024;19.220;2023-08-01T22:00:41;9.50;;;8.50;;
35290;SDS011;21411;50.024;19.220;2023-08-01T22:03:09;8.60;;;7.70;;
35290;SDS011;21411;50.024;19.220;2023-08-01T22:05:37;9.10;;;7.80;;
35290;SDS011;21411;50.024;19.220;2023-08-01T22:08:05;9.80;;;7.40;;
35290;SDS011;21411;50.024;19.220;2023-08-01T22:10:32;7.90;;;7.10;;
35290;SDS011;21411;50.024;19.220;2023-08-01T22:12:59;8.80;;;8.00;;
35290;SDS011;21411;50.024;19.220;2023-08-01T22:15:27;9.20;;;8.40;;
35290;SDS011;21411;50.024;19.220;2023-08-01T22:17:55;8.80;;;8.00;;
35290;SDS011;21411;50.024;19.220;2023-08-01T22:20:22;8.80;;;8.00;;
35290;SDS011;21411;50.024;19.220;2023-08-01T22:22:48;8.80;;;7.90;;
35290;SDS011;21411;50.024;19.220;2023-08-01T22:25:15;8.40;;;7.60;;
35290;SDS011;21411;50.024;19.220;2023-08-01T22:27:41;7.90;;;7.10;;
35290;SDS011;21411;50.024;19.220;2023-08-01T22:30:08;8.40;;;7.00;;
35290;SDS011;21411;50.024;19.220;2023-08-01T22:32:36;6.80;;;6.20;;
35290;SDS011;21411;50.024;19.220;2023-08-01T22:35:02;6.10;;;5.50;;
35290;SDS011;21411;50.024;19.220;2023-08-01T22:37:29;6.20;;;5.60;;
35290;SDS011;21411;50.024;19.220;2023-08-01T22:39:56;6.80;;;5.90;;
35290;SDS011;21411;50.024;19.220;2023-08-01T22:42:22;5.90;;;5.10;;
35290;SDS011;21411;50.024;19.220;2023-08-01T22:44:49;7.10;;;5.90;;
35290;SDS011;21411;50.024;19.220;2023-08-01T22:47:15;6.30;;;5.50;;
35290;SDS011;21411;50.024;19.220;2023-08-01T22:49:42;6.60;;;4.60;;
35290;SDS011;21411;50.024;19.220;2023-08-01T22:52:08;6.00;;;4.10;;
35290;SDS011;21411;50.024;19.220;2023-08-01T22:54:35;5.30;;;4.40;;
35290;SDS011;21411;50.024;19.220;2023-08-01T22:57:02;6.40;;;4.70;;
35290;SDS011;21411;50.024;19.220;2023-08-01T22:59:29;4.10;;;3.70;;
35290;SDS011;21411;50.024;19.220;2023-08-01T23:01:55;5.40;;;4.10;;
35290;SDS011;21411;50.024;19.220;2023-08-01T23:04:22;4.50;;;4.10;;
35290;SDS011;21411;50.024;19.220;2023-08-01T23:06:49;5.50;;;4.10;;
35290;SDS011;21411;50.024;19.220;2023-08-01T23:09:15;5.60;;;3.80;;
35290;SDS011;21411;50.024;19.220;2023-08-01T23:11:42;4.40;;;4.00;;
35290;SDS011;21411;50.024;19.220;2023-08-01T23:14:09;4.00;;;3.70;;
35290;SDS011;21411;50.024;19.220;2023-08-01T23:16:35;4.60;;;3.90;;
35290;SDS011;21411;50.024;19.220;2023-08-01T23:19:02;6.80;;;3.50;;
35290;SDS011;21411;50.024;19.220;2023-08-01T23:21:29;5.20;;;3.90;;
35290;SDS011;21411;50.024;19.220;2023-08-01T23:23:57;7.00;;;3.70;;
35290;SDS011;21411;50.024;19.220;2023-08-01T23:26:23;4.40;;;3.30;;
35290;SDS011;21411;50.024;19.220;2023-08-01T23:28:50;5.10;;;3.90;;
35290;SDS011;21411;50.024;19.220;2023-08-01T23:31:16;5.80;;;4.10;;
35290;SDS011;21411;50.024;19.220;2023-08-01T23:33:43;5.90;;;3.90;;
35290;SDS011;21411;50.024;19.220;2023-08-01T23:36:10;5.00;;;4.40;;
35290;SDS011;21411;50.024;19.220;2023-08-01T23:38:36;5.40;;;4.20;;
35290;SDS011;21411;50.024;19.220;2023-08-01T23:41:12;5.70;;;4.60;;
35290;SDS011;21411;50.024;19.220;2023-08-01T23:43:40;9.20;;;5.10;;
35290;SDS011;21411;50.024;19.220;2023-08-01T23:46:07;4.40;;;4.00;;